createdAt,value
2018-01-07T00:00:37.315Z,986.02
2018-01-07T00:01:37.267Z,985.99
2018-01-07T00:02:37.262Z,985.98
2018-01-07T00:03:37.253Z,985.99
2018-01-07T00:04:37.245Z,986.01
2018-01-07T00:05:37.257Z,985.95
2018-01-07T00:06:37.232Z,986.03
2018-01-07T00:07:37.244Z,986
2018-01-07T00:08:37.219Z,985.95
2018-01-07T00:09:37.211Z,985.98
2018-01-07T00:10:37.202Z,985.96
2018-01-07T00:11:37.199Z,985.97
2018-01-07T00:12:38.938Z,986.04
2018-01-07T00:13:37.178Z,986.07
2018-01-07T00:14:37.178Z,986.11
2018-01-07T00:15:37.165Z,986.13
2018-01-07T00:16:37.158Z,986.2
2018-01-07T00:17:37.151Z,986.2
2018-01-07T00:18:37.145Z,986.22
2018-01-07T00:19:37.138Z,986.22
2018-01-07T00:20:37.134Z,986.18
2018-01-07T00:21:37.124Z,986.19
2018-01-07T00:22:37.125Z,986.19
2018-01-07T00:23:37.111Z,986.22
2018-01-07T00:24:37.101Z,986.24
2018-01-07T00:25:37.096Z,986.25
2018-01-07T00:26:37.092Z,986.28
2018-01-07T00:27:37.071Z,986.29
2018-01-07T00:28:37.075Z,986.33
2018-01-07T00:29:37.068Z,986.31
2018-01-07T00:30:37.050Z,986.35
2018-01-07T00:31:37.058Z,986.36
2018-01-07T00:32:37.034Z,986.35
2018-01-07T00:33:37.030Z,986.42
2018-01-07T00:34:37.032Z,986.39
2018-01-07T00:35:37.028Z,986.43
2018-01-07T00:36:37.020Z,986.39
2018-01-07T00:37:37.009Z,986.41
2018-01-07T00:38:37.004Z,986.43
2018-01-07T00:39:36.994Z,986.4
2018-01-07T00:40:36.977Z,986.41
2018-01-07T00:41:36.990Z,986.44
2018-01-07T00:42:36.980Z,986.48
2018-01-07T00:43:36.980Z,986.5
2018-01-07T00:44:37.011Z,986.54
2018-01-07T00:45:36.944Z,986.52
2018-01-07T00:46:36.951Z,986.55
2018-01-07T00:47:36.992Z,986.55
2018-01-07T00:48:36.977Z,986.51
2018-01-07T00:49:36.915Z,986.58
2018-01-07T00:50:36.940Z,986.6
2018-01-07T00:51:36.914Z,986.59
2018-01-07T00:52:36.916Z,986.57
2018-01-07T00:53:36.944Z,986.63
2018-01-07T00:54:36.910Z,986.66
2018-01-07T00:55:36.880Z,986.66
2018-01-07T00:56:36.899Z,986.67
2018-01-07T00:57:36.889Z,986.68
2018-01-07T00:58:36.871Z,986.67
2018-01-07T00:59:36.847Z,986.68
2018-01-07T01:00:36.915Z,986.74
2018-01-07T01:01:36.873Z,986.77
2018-01-07T01:02:36.896Z,986.74
2018-01-07T01:03:36.838Z,986.79
2018-01-07T01:04:36.846Z,986.79
2018-01-07T01:05:36.808Z,986.81
2018-01-07T01:06:36.845Z,986.79
2018-01-07T01:07:36.795Z,986.88
2018-01-07T01:08:36.786Z,986.8
2018-01-07T01:09:36.787Z,986.85
2018-01-07T01:10:36.761Z,986.89
2018-01-07T01:11:36.802Z,986.91
2018-01-07T01:12:36.768Z,986.92
2018-01-07T01:13:36.757Z,986.98
2018-01-07T01:14:36.729Z,986.99
2018-01-07T01:15:36.734Z,987.01
2018-01-07T01:16:36.716Z,987
2018-01-07T01:17:36.708Z,987.02
2018-01-07T01:18:36.709Z,987.04
2018-01-07T01:19:36.693Z,987.05
2018-01-07T01:20:36.688Z,987.05
2018-01-07T01:21:36.679Z,987.09
2018-01-07T01:22:36.671Z,987.1
2018-01-07T01:23:36.665Z,987.12
2018-01-07T01:24:36.656Z,987.13
2018-01-07T01:25:36.650Z,987.19
2018-01-07T01:26:36.643Z,987.19
2018-01-07T01:27:36.635Z,987.21
2018-01-07T01:28:36.627Z,987.2
2018-01-07T01:29:36.619Z,987.24
2018-01-07T01:30:36.612Z,987.2
2018-01-07T01:31:36.611Z,987.18
2018-01-07T01:32:36.607Z,987.19
2018-01-07T01:33:36.592Z,987.2
2018-01-07T01:34:36.583Z,987.19
2018-01-07T01:35:36.581Z,987.19
2018-01-07T01:36:36.571Z,987.17
2018-01-07T01:37:36.561Z,987.2
2018-01-07T01:38:36.556Z,987.22
2018-01-07T01:39:36.546Z,987.24
2018-01-07T01:40:36.538Z,987.26
2018-01-07T01:41:36.536Z,987.28
2018-01-07T01:42:36.524Z,987.27
2018-01-07T01:43:36.516Z,987.31
2018-01-07T01:44:36.510Z,987.29
2018-01-07T01:45:36.501Z,987.32
2018-01-07T01:46:36.493Z,987.32
2018-01-07T01:47:36.515Z,987.33
2018-01-07T01:48:36.482Z,987.28
2018-01-07T01:49:36.471Z,987.26
2018-01-07T01:50:36.462Z,987.3
2018-01-07T01:51:36.458Z,987.32
2018-01-07T01:52:36.451Z,987.29
2018-01-07T01:53:36.445Z,987.29
2018-01-07T01:54:36.435Z,987.26
2018-01-07T01:55:36.428Z,987.29
2018-01-07T01:56:36.418Z,987.26
2018-01-07T01:57:36.442Z,987.26
2018-01-07T01:58:36.405Z,987.25
2018-01-07T01:59:36.400Z,987.23
2018-01-07T02:00:36.432Z,987.25
2018-01-07T02:01:36.380Z,987.25
2018-01-07T02:02:36.371Z,987.21
2018-01-07T02:03:36.367Z,987.2
2018-01-07T02:04:36.357Z,987.25
2018-01-07T02:05:36.349Z,987.24
2018-01-07T02:06:36.343Z,987.25
2018-01-07T02:07:36.336Z,987.22
2018-01-07T02:08:36.382Z,987.24
2018-01-07T02:09:36.342Z,987.21
2018-01-07T02:10:36.336Z,987.23
2018-01-07T02:11:36.336Z,987.23
2018-01-07T02:12:36.315Z,987.27
2018-01-07T02:13:36.346Z,987.3
2018-01-07T02:14:36.287Z,987.31
2018-01-07T02:15:36.281Z,987.3
2018-01-07T02:16:36.272Z,987.35
2018-01-07T02:17:36.258Z,987.37
2018-01-07T02:18:36.253Z,987.34
2018-01-07T02:19:36.280Z,987.39
2018-01-07T02:20:36.234Z,987.44
2018-01-07T02:21:36.229Z,987.42
2018-01-07T02:22:36.224Z,987.41
2018-01-07T02:23:36.210Z,987.46
2018-01-07T02:24:36.203Z,987.49
2018-01-07T02:25:36.196Z,987.43
2018-01-07T02:26:36.187Z,987.49
2018-01-07T02:27:36.202Z,987.52
2018-01-07T02:28:36.177Z,987.52
2018-01-07T02:29:36.184Z,987.48
2018-01-07T02:30:36.165Z,987.54
2018-01-07T02:31:36.151Z,987.52
2018-01-07T02:32:36.144Z,987.5
2018-01-07T02:33:36.135Z,987.48
2018-01-07T02:34:36.125Z,987.46
2018-01-07T02:35:36.118Z,987.53
2018-01-07T02:36:36.112Z,987.54
2018-01-07T02:37:36.101Z,987.57
2018-01-07T02:38:36.097Z,987.59
2018-01-07T02:39:36.087Z,987.64
2018-01-07T02:40:36.079Z,987.6
2018-01-07T02:41:36.072Z,987.63
2018-01-07T02:42:36.064Z,987.69
2018-01-07T02:43:36.055Z,987.67
2018-01-07T02:44:36.058Z,987.64
2018-01-07T02:45:36.039Z,987.66
2018-01-07T02:46:36.032Z,987.67
2018-01-07T02:47:36.024Z,987.67
2018-01-07T02:48:36.028Z,987.66
2018-01-07T02:49:36.009Z,987.69
2018-01-07T02:50:36.001Z,987.72
2018-01-07T02:51:35.993Z,987.74
2018-01-07T02:52:36.000Z,987.74
2018-01-07T02:53:35.978Z,987.73
2018-01-07T02:54:35.969Z,987.78
2018-01-07T02:55:35.965Z,987.83
2018-01-07T02:56:35.955Z,987.83
2018-01-07T02:57:35.948Z,987.86
2018-01-07T02:58:35.943Z,987.87
2018-01-07T02:59:35.931Z,987.86
2018-01-07T03:00:35.925Z,987.87
2018-01-07T03:01:35.914Z,987.86
2018-01-07T03:02:35.916Z,987.86
2018-01-07T03:03:35.902Z,987.8
2018-01-07T03:04:35.896Z,987.83
2018-01-07T03:05:35.887Z,987.78
2018-01-07T03:06:35.878Z,987.8
2018-01-07T03:07:35.879Z,987.82
2018-01-07T03:08:35.865Z,987.78
2018-01-07T03:09:35.853Z,987.79
2018-01-07T03:10:35.843Z,987.8
2018-01-07T03:11:35.839Z,987.79
2018-01-07T03:12:35.831Z,987.83
2018-01-07T03:13:35.819Z,987.82
2018-01-07T03:14:35.813Z,987.82
2018-01-07T03:15:35.805Z,987.85
2018-01-07T03:16:35.795Z,987.86
2018-01-07T03:17:35.799Z,987.88
2018-01-07T03:18:35.780Z,987.93
2018-01-07T03:19:35.774Z,987.94
2018-01-07T03:20:35.782Z,987.98
2018-01-07T03:21:35.755Z,987.97
2018-01-07T03:22:35.746Z,987.93
2018-01-07T03:23:35.744Z,987.92
2018-01-07T03:24:35.731Z,987.96
2018-01-07T03:25:35.724Z,987.98
2018-01-07T03:26:35.725Z,987.98
2018-01-07T03:27:35.719Z,987.99
2018-01-07T03:28:35.699Z,988
2018-01-07T03:29:35.692Z,988
2018-01-07T03:30:35.684Z,987.98
2018-01-07T03:31:35.677Z,987.99
2018-01-07T03:32:35.668Z,988
2018-01-07T03:33:35.661Z,988.02
2018-01-07T03:34:35.650Z,988.08
2018-01-07T03:35:35.645Z,988.04
2018-01-07T03:36:35.640Z,988.05
2018-01-07T03:37:35.629Z,988.11
2018-01-07T03:38:35.622Z,988.14
2018-01-07T03:39:35.611Z,988.12
2018-01-07T03:40:35.605Z,988.12
2018-01-07T03:41:35.597Z,988.15
2018-01-07T03:42:35.603Z,988.19
2018-01-07T03:43:36.692Z,988.18
2018-01-07T03:44:35.573Z,988.2
2018-01-07T03:45:35.565Z,988.19
2018-01-07T03:46:35.561Z,988.17
2018-01-07T03:47:35.552Z,988.23
2018-01-07T03:48:35.544Z,988.2
2018-01-07T03:49:35.568Z,988.19
2018-01-07T03:50:35.541Z,988.19
2018-01-07T03:51:35.534Z,988.19
2018-01-07T03:52:35.518Z,988.17
2018-01-07T03:53:35.513Z,988.21
2018-01-07T03:54:35.495Z,988.26
2018-01-07T03:55:35.489Z,988.25
2018-01-07T03:56:35.495Z,988.27
2018-01-07T03:57:35.472Z,988.28
2018-01-07T03:58:35.479Z,988.28
2018-01-07T03:59:35.468Z,988.28
2018-01-07T04:00:35.457Z,988.32
2018-01-07T04:01:35.452Z,988.32
2018-01-07T04:02:35.465Z,988.31
2018-01-07T04:03:35.444Z,988.3
2018-01-07T04:04:35.435Z,988.31
2018-01-07T04:05:35.467Z,988.31
2018-01-07T04:06:35.414Z,988.31
2018-01-07T04:07:35.439Z,988.36
2018-01-07T04:08:35.407Z,988.34
2018-01-07T04:09:35.400Z,988.32
2018-01-07T04:10:35.439Z,988.36
2018-01-07T04:11:35.380Z,988.34
2018-01-07T04:12:35.379Z,988.32
2018-01-07T04:13:35.364Z,988.3
2018-01-07T04:14:35.343Z,988.36
2018-01-07T04:15:35.368Z,988.33
2018-01-07T04:16:35.356Z,988.31
2018-01-07T04:17:35.344Z,988.33
2018-01-07T04:18:35.327Z,988.4
2018-01-07T04:19:35.315Z,988.39
2018-01-07T04:20:35.318Z,988.44
2018-01-07T04:21:35.306Z,988.5
2018-01-07T04:22:35.291Z,988.48
2018-01-07T04:23:35.290Z,988.47
2018-01-07T04:24:35.284Z,988.52
2018-01-07T04:25:35.264Z,988.51
2018-01-07T04:26:35.274Z,988.55
2018-01-07T04:27:35.277Z,988.53
2018-01-07T04:28:35.260Z,988.57
2018-01-07T04:29:35.247Z,988.55
2018-01-07T04:30:35.254Z,988.56
2018-01-07T04:31:35.226Z,988.6
2018-01-07T04:32:35.241Z,988.59
2018-01-07T04:33:35.219Z,988.65
2018-01-07T04:34:35.203Z,988.68
2018-01-07T04:35:35.201Z,988.7
2018-01-07T04:36:35.189Z,988.7
2018-01-07T04:37:35.191Z,988.73
2018-01-07T04:38:35.168Z,988.71
2018-01-07T04:39:35.161Z,988.78
2018-01-07T04:40:35.149Z,988.79
2018-01-07T04:41:35.146Z,988.78
2018-01-07T04:42:35.134Z,988.78
2018-01-07T04:43:35.127Z,988.74
2018-01-07T04:44:35.121Z,988.76
2018-01-07T04:45:35.113Z,988.78
2018-01-07T04:46:35.113Z,988.77
2018-01-07T04:47:35.105Z,988.76
2018-01-07T04:48:35.091Z,988.73
2018-01-07T04:49:35.083Z,988.71
2018-01-07T04:50:35.076Z,988.73
2018-01-07T04:51:35.068Z,988.72
2018-01-07T04:52:35.059Z,988.68
2018-01-07T04:53:35.060Z,988.69
2018-01-07T04:54:35.047Z,988.73
2018-01-07T04:55:35.039Z,988.71
2018-01-07T04:56:35.031Z,988.72
2018-01-07T04:57:35.028Z,988.73
2018-01-07T04:58:35.016Z,988.76
2018-01-07T04:59:35.010Z,988.78
2018-01-07T05:00:35.001Z,988.78
2018-01-07T05:01:34.995Z,988.77
2018-01-07T05:02:34.987Z,988.75
2018-01-07T05:03:34.978Z,988.8
2018-01-07T05:04:34.971Z,988.78
2018-01-07T05:05:34.965Z,988.81
2018-01-07T05:06:34.957Z,988.75
2018-01-07T05:07:34.962Z,988.79
2018-01-07T05:08:34.943Z,988.86
2018-01-07T05:09:34.941Z,988.92
2018-01-07T05:10:34.928Z,988.87
2018-01-07T05:11:34.920Z,988.91
2018-01-07T05:12:34.914Z,988.9
2018-01-07T05:13:34.907Z,988.95
2018-01-07T05:14:34.898Z,988.94
2018-01-07T05:15:34.891Z,988.92
2018-01-07T05:16:34.897Z,988.91
2018-01-07T05:17:34.877Z,988.92
2018-01-07T05:18:34.870Z,988.89
2018-01-07T05:19:34.863Z,988.9
2018-01-07T05:20:34.855Z,988.9
2018-01-07T05:21:34.872Z,988.9
2018-01-07T05:22:34.841Z,988.86
2018-01-07T05:23:34.833Z,988.89
2018-01-07T05:24:34.828Z,988.89
2018-01-07T05:25:34.818Z,988.94
2018-01-07T05:26:34.809Z,988.86
2018-01-07T05:27:34.807Z,988.89
2018-01-07T05:28:34.797Z,988.87
2018-01-07T05:29:34.789Z,988.89
2018-01-07T05:30:34.787Z,988.87
2018-01-07T05:31:34.775Z,988.93
2018-01-07T05:32:34.769Z,988.99
2018-01-07T05:33:34.762Z,989
2018-01-07T05:34:34.754Z,989
2018-01-07T05:35:34.745Z,989.02
2018-01-07T05:36:34.740Z,989.09
2018-01-07T05:37:34.731Z,989.12
2018-01-07T05:38:34.725Z,989.07
2018-01-07T05:39:34.718Z,989.12
2018-01-07T05:40:34.721Z,989.14
2018-01-07T05:41:34.703Z,989.12
2018-01-07T05:42:34.696Z,989.16
2018-01-07T05:43:34.699Z,989.11
2018-01-07T05:44:34.683Z,989.19
2018-01-07T05:45:34.707Z,989.25
2018-01-07T05:46:34.667Z,989.24
2018-01-07T05:47:34.662Z,989.26
2018-01-07T05:48:34.656Z,989.27
2018-01-07T05:49:34.645Z,989.32
2018-01-07T05:50:34.637Z,989.35
2018-01-07T05:51:34.631Z,989.4
2018-01-07T05:52:34.625Z,989.42
2018-01-07T05:53:34.615Z,989.44
2018-01-07T05:54:34.615Z,989.52
2018-01-07T05:55:34.602Z,989.43
2018-01-07T05:56:34.594Z,989.47
2018-01-07T05:57:34.588Z,989.51
2018-01-07T05:58:34.582Z,989.53
2018-01-07T05:59:34.573Z,989.56
2018-01-07T06:00:34.566Z,989.59
2018-01-07T06:01:34.566Z,989.57
2018-01-07T06:02:34.561Z,989.6
2018-01-07T06:03:34.546Z,989.59
2018-01-07T06:04:34.537Z,989.56
2018-01-07T06:05:34.530Z,989.56
2018-01-07T06:06:34.522Z,989.54
2018-01-07T06:07:34.516Z,989.56
2018-01-07T06:08:34.514Z,989.51
2018-01-07T06:09:34.502Z,989.53
2018-01-07T06:10:34.494Z,989.47
2018-01-07T06:11:34.486Z,989.48
2018-01-07T06:12:34.481Z,989.52
2018-01-07T06:13:34.474Z,989.54
2018-01-07T06:14:34.465Z,989.58
2018-01-07T06:15:34.465Z,989.57
2018-01-07T06:16:34.468Z,989.6
2018-01-07T06:17:34.444Z,989.63
2018-01-07T06:18:34.437Z,989.66
2018-01-07T06:19:34.437Z,989.66
2018-01-07T06:20:34.422Z,989.65
2018-01-07T06:21:34.422Z,989.66
2018-01-07T06:22:34.411Z,989.68
2018-01-07T06:23:34.409Z,989.67
2018-01-07T06:24:34.390Z,989.71
2018-01-07T06:25:34.382Z,989.71
2018-01-07T06:26:34.414Z,989.74
2018-01-07T06:27:34.367Z,989.75
2018-01-07T06:28:34.359Z,989.75
2018-01-07T06:29:34.354Z,989.79
2018-01-07T06:30:34.347Z,989.83
2018-01-07T06:31:34.339Z,989.82
2018-01-07T06:32:34.328Z,989.83
2018-01-07T06:33:34.321Z,989.79
2018-01-07T06:34:34.316Z,989.83
2018-01-07T06:35:34.305Z,989.83
2018-01-07T06:36:34.299Z,989.85
2018-01-07T06:37:34.292Z,989.84
2018-01-07T06:38:34.280Z,989.83
2018-01-07T06:39:34.277Z,989.84
2018-01-07T06:40:34.268Z,989.82
2018-01-07T06:41:34.260Z,989.84
2018-01-07T06:42:34.252Z,989.85
2018-01-07T06:43:34.241Z,989.87
2018-01-07T06:44:34.234Z,989.87
2018-01-07T06:45:34.249Z,989.88
2018-01-07T06:46:34.218Z,989.87
2018-01-07T06:47:34.211Z,989.84
2018-01-07T06:48:34.203Z,989.88
2018-01-07T06:49:34.229Z,989.9
2018-01-07T06:50:34.187Z,989.94
2018-01-07T06:51:34.178Z,989.97
2018-01-07T06:52:34.172Z,990
2018-01-07T06:53:34.164Z,990.05
2018-01-07T06:54:34.154Z,990.06
2018-01-07T06:55:34.147Z,990.07
2018-01-07T06:56:34.138Z,990.1
2018-01-07T06:57:34.131Z,990.05
2018-01-07T06:58:34.123Z,990.11
2018-01-07T06:59:34.113Z,990.15
2018-01-07T07:00:34.120Z,990.13
2018-01-07T07:01:34.098Z,990.16
2018-01-07T07:02:34.091Z,990.17
2018-01-07T07:03:34.083Z,990.19
2018-01-07T07:04:34.073Z,990.17
2018-01-07T07:05:34.068Z,990.2
2018-01-07T07:06:34.060Z,990.22
2018-01-07T07:07:34.084Z,990.21
2018-01-07T07:08:34.075Z,990.22
2018-01-07T07:09:34.036Z,990.17
2018-01-07T07:10:34.028Z,990.21
2018-01-07T07:11:34.019Z,990.21
2018-01-07T07:12:34.012Z,990.2
2018-01-07T07:13:34.005Z,990.22
2018-01-07T07:14:33.994Z,990.18
2018-01-07T07:15:33.986Z,990.2
2018-01-07T07:16:33.979Z,990.29
2018-01-07T07:17:33.972Z,990.32
2018-01-07T07:18:33.966Z,990.36
2018-01-07T07:19:33.955Z,990.34
2018-01-07T07:20:33.950Z,990.38
2018-01-07T07:21:33.945Z,990.47
2018-01-07T07:22:33.954Z,990.41
2018-01-07T07:23:33.935Z,990.48
2018-01-07T07:24:33.916Z,990.5
2018-01-07T07:25:33.908Z,990.47
2018-01-07T07:26:33.902Z,990.55
2018-01-07T07:27:33.929Z,990.53
2018-01-07T07:28:33.890Z,990.57
2018-01-07T07:29:33.890Z,990.55
2018-01-07T07:30:33.874Z,990.52
2018-01-07T07:31:33.868Z,990.55
2018-01-07T07:32:33.858Z,990.59
2018-01-07T07:33:33.849Z,990.61
2018-01-07T07:34:33.844Z,990.64
2018-01-07T07:35:33.839Z,990.64
2018-01-07T07:36:33.827Z,990.64
2018-01-07T07:37:33.828Z,990.64
2018-01-07T07:38:33.812Z,990.61
2018-01-07T07:39:33.805Z,990.61
2018-01-07T07:40:33.800Z,990.56
2018-01-07T07:41:33.789Z,990.59
2018-01-07T07:42:33.782Z,990.61
2018-01-07T07:43:33.776Z,990.61
2018-01-07T07:44:33.766Z,990.67
2018-01-07T07:45:33.773Z,990.68
2018-01-07T07:46:33.762Z,990.68
2018-01-07T07:47:33.747Z,990.69
2018-01-07T07:48:33.739Z,990.76
2018-01-07T07:49:33.736Z,990.78
2018-01-07T07:50:33.723Z,990.75
2018-01-07T07:51:33.718Z,990.75
2018-01-07T07:52:33.709Z,990.77
2018-01-07T07:53:33.703Z,990.75
2018-01-07T07:54:33.733Z,990.77
2018-01-07T07:55:33.687Z,990.82
2018-01-07T07:56:33.680Z,990.88
2018-01-07T07:57:33.675Z,990.93
2018-01-07T07:58:33.671Z,990.94
2018-01-07T07:59:33.657Z,990.94
2018-01-07T08:00:33.650Z,991
2018-01-07T08:01:33.648Z,990.99
2018-01-07T08:02:33.637Z,991
2018-01-07T08:03:33.628Z,991.02
2018-01-07T08:04:33.621Z,991
2018-01-07T08:05:33.615Z,991
2018-01-07T08:06:33.611Z,991.04
2018-01-07T08:07:33.599Z,991.08
2018-01-07T08:08:33.592Z,991.06
2018-01-07T08:09:33.585Z,991.04
2018-01-07T08:10:33.576Z,991.11
2018-01-07T08:11:33.572Z,991.07
2018-01-07T08:12:33.568Z,991.1
2018-01-07T08:13:33.555Z,991.14
2018-01-07T08:14:33.549Z,991.12
2018-01-07T08:15:33.547Z,991.13
2018-01-07T08:16:33.545Z,991.07
2018-01-07T08:17:33.527Z,991.08
2018-01-07T08:18:33.523Z,991.08
2018-01-07T08:19:33.513Z,991.09
2018-01-07T08:20:33.510Z,991.11
2018-01-07T08:21:33.507Z,991.1
2018-01-07T08:22:33.510Z,991.13
2018-01-07T08:23:33.483Z,991.07
2018-01-07T08:24:33.479Z,991.08
2018-01-07T08:25:33.471Z,991.06
2018-01-07T08:26:33.462Z,991.07
2018-01-07T08:27:33.459Z,991.03
2018-01-07T08:28:33.448Z,991.07
2018-01-07T08:29:33.450Z,991.08
2018-01-07T08:30:33.435Z,991.11
2018-01-07T08:31:33.437Z,991.13
2018-01-07T08:32:33.419Z,991.12
2018-01-07T08:33:33.415Z,991.13
2018-01-07T08:34:33.406Z,991.13
2018-01-07T08:35:33.428Z,991.13
2018-01-07T08:36:33.455Z,991.12
2018-01-07T08:37:33.385Z,991.16
2018-01-07T08:38:33.412Z,991.19
2018-01-07T08:39:33.371Z,991.21
2018-01-07T08:40:33.366Z,991.26
2018-01-07T08:41:33.361Z,991.26
2018-01-07T08:42:33.349Z,991.31
2018-01-07T08:43:33.342Z,991.35
2018-01-07T08:44:33.336Z,991.39
2018-01-07T08:45:33.332Z,991.38
2018-01-07T08:46:33.321Z,991.39
2018-01-07T08:47:33.313Z,991.44
2018-01-07T08:48:33.309Z,991.46
2018-01-07T08:49:33.298Z,991.45
2018-01-07T08:50:33.308Z,991.51
2018-01-07T08:51:33.286Z,991.52
2018-01-07T08:52:33.279Z,991.52
2018-01-07T08:53:33.279Z,991.5
2018-01-07T08:54:33.263Z,991.51
2018-01-07T08:55:33.256Z,991.53
2018-01-07T08:56:33.252Z,991.61
2018-01-07T08:57:33.241Z,991.64
2018-01-07T08:58:33.235Z,991.63
2018-01-07T08:59:33.228Z,991.67
2018-01-07T09:00:33.221Z,991.68
2018-01-07T09:01:33.213Z,991.72
2018-01-07T09:02:33.207Z,991.74
2018-01-07T09:03:33.201Z,991.73
2018-01-07T09:04:33.205Z,991.76
2018-01-07T09:05:33.190Z,991.78
2018-01-07T09:06:33.181Z,991.82
2018-01-07T09:07:33.171Z,991.79
2018-01-07T09:08:33.164Z,991.78
2018-01-07T09:09:33.158Z,991.79
2018-01-07T09:10:33.153Z,991.82
2018-01-07T09:11:33.151Z,991.78
2018-01-07T09:12:33.141Z,991.86
2018-01-07T09:13:33.130Z,991.86
2018-01-07T09:14:33.123Z,991.88
2018-01-07T09:15:33.116Z,991.91
2018-01-07T09:16:33.109Z,991.96
2018-01-07T09:17:33.102Z,991.94
2018-01-07T09:18:33.096Z,991.95
2018-01-07T09:19:33.090Z,991.96
2018-01-07T09:20:33.089Z,991.99
2018-01-07T09:21:33.098Z,991.93
2018-01-07T09:22:33.071Z,991.98
2018-01-07T09:23:33.064Z,991.93
2018-01-07T09:24:33.059Z,991.95
2018-01-07T09:25:33.048Z,991.92
2018-01-07T09:26:33.040Z,991.94
2018-01-07T09:27:33.035Z,991.98
2018-01-07T09:28:33.030Z,991.98
2018-01-07T09:29:33.023Z,992.06
2018-01-07T09:30:33.015Z,992.05
2018-01-07T09:31:33.009Z,992.06
2018-01-07T09:32:33.007Z,992.09
2018-01-07T09:33:32.996Z,992.1
2018-01-07T09:34:32.994Z,992.12
2018-01-07T09:35:32.982Z,992.12
2018-01-07T09:36:32.978Z,992.2
2018-01-07T09:37:32.970Z,992.15
2018-01-07T09:38:32.962Z,992.22
2018-01-07T09:39:32.956Z,992.24
2018-01-07T09:40:32.949Z,992.26
2018-01-07T09:41:32.944Z,992.31
2018-01-07T09:42:32.936Z,992.33
2018-01-07T09:43:32.946Z,992.29
2018-01-07T09:44:32.925Z,992.34
2018-01-07T09:45:32.932Z,992.32
2018-01-07T09:46:33.363Z,992.29
2018-01-07T09:47:32.906Z,992.34
2018-01-07T09:48:32.900Z,992.28
2018-01-07T09:49:32.897Z,992.32
2018-01-07T09:50:32.886Z,992.36
2018-01-07T09:51:32.880Z,992.36
2018-01-07T09:52:32.875Z,992.32
2018-01-07T09:53:32.868Z,992.34
2018-01-07T09:54:32.862Z,992.39
2018-01-07T09:55:32.857Z,992.35
2018-01-07T09:56:32.855Z,992.33
2018-01-07T09:57:32.843Z,992.34
2018-01-07T09:58:32.846Z,992.33
2018-01-07T09:59:32.835Z,992.31
2018-01-07T10:00:32.836Z,992.29
2018-01-07T10:01:32.832Z,992.28
2018-01-07T10:02:32.818Z,992.27
2018-01-07T10:03:32.811Z,992.28
2018-01-07T10:04:32.804Z,992.34
2018-01-07T10:05:32.801Z,992.36
2018-01-07T10:06:32.792Z,992.31
2018-01-07T10:07:32.787Z,992.28
2018-01-07T10:08:32.780Z,992.3
2018-01-07T10:09:32.776Z,992.29
2018-01-07T10:10:32.779Z,992.32
2018-01-07T10:11:32.764Z,992.34
2018-01-07T10:12:32.760Z,992.34
2018-01-07T10:13:32.755Z,992.34
2018-01-07T10:14:32.749Z,992.34
2018-01-07T10:15:32.748Z,992.33
2018-01-07T10:16:32.739Z,992.3
2018-01-07T10:17:32.731Z,992.3
2018-01-07T10:18:32.726Z,992.27
2018-01-07T10:19:32.728Z,992.28
2018-01-07T10:20:32.716Z,992.27
2018-01-07T10:21:32.708Z,992.28
2018-01-07T10:22:32.710Z,992.26
2018-01-07T10:52:35.922Z,992.3
2018-01-07T10:53:35.909Z,992.32
2018-01-07T10:54:35.896Z,992.3
2018-01-07T10:55:35.884Z,992.27
2018-01-07T10:56:35.876Z,992.25
2018-01-07T10:57:35.865Z,992.19
2018-01-07T10:58:35.858Z,992.23
2018-01-07T10:59:35.845Z,992.21
2018-01-07T11:00:35.837Z,992.2
2018-01-07T11:01:35.830Z,992.19
2018-01-07T11:02:35.823Z,992.19
2018-01-07T11:03:35.827Z,992.21
2018-01-07T11:04:35.808Z,992.23
2018-01-07T11:05:35.801Z,992.23
2018-01-07T11:06:35.793Z,992.2
2018-01-07T11:07:35.784Z,992.21
2018-01-07T11:08:35.777Z,992.2
2018-01-07T11:09:35.771Z,992.18
2018-01-07T11:10:35.769Z,992.18
2018-01-07T11:11:35.757Z,992.22
2018-01-07T11:12:35.762Z,992.25
2018-01-07T11:13:35.751Z,992.15
2018-01-07T11:14:35.737Z,992.18
2018-01-07T11:15:35.735Z,992.18
2018-01-07T11:16:35.727Z,992.1
2018-01-07T11:17:35.726Z,992.14
2018-01-07T11:18:35.723Z,992.22
2018-01-07T11:19:35.727Z,992.16
2018-01-07T11:20:35.710Z,992.21
2018-01-07T11:21:35.748Z,992.16
2018-01-07T11:22:35.855Z,992.13
2018-01-07T11:23:35.703Z,992.14
2018-01-07T11:24:35.691Z,992.14
2018-01-07T11:25:35.672Z,992.15
2018-01-07T11:26:35.667Z,992.15
2018-01-07T11:27:35.677Z,992.2
2018-01-07T11:28:35.664Z,992.14
2018-01-07T11:29:35.671Z,992.08
2018-01-07T11:30:35.659Z,992.09
2018-01-07T11:31:35.662Z,992.11
2018-01-07T11:32:35.646Z,992.1
2018-01-07T11:33:35.649Z,992.12
2018-01-07T11:34:35.641Z,992.11
2018-01-07T11:35:35.630Z,992.09
2018-01-07T11:36:35.621Z,992.12
2018-01-07T11:37:35.630Z,992.14
2018-01-07T11:38:35.626Z,992.13
2018-01-07T11:39:35.616Z,992.13
2018-01-07T11:40:35.598Z,992.11
2018-01-07T11:41:35.608Z,992.11
2018-01-07T11:42:35.608Z,992.07
2018-01-07T11:43:35.590Z,992.08
2018-01-07T11:44:35.624Z,992.08
2018-01-07T11:45:35.619Z,992.04
2018-01-07T11:46:35.592Z,992.02
2018-01-07T11:47:35.564Z,992.01
2018-01-07T11:48:35.570Z,992.02
2018-01-07T11:49:35.585Z,992.02
2018-01-07T11:50:35.556Z,992.01
2018-01-07T11:51:35.536Z,992.01
2018-01-07T11:52:37.441Z,992.01
2018-01-07T11:53:35.538Z,992
2018-01-07T11:54:35.555Z,991.97
2018-01-07T11:55:35.552Z,992.02
2018-01-07T11:56:35.516Z,992
2018-01-07T11:57:35.509Z,992.04
2018-01-07T11:58:35.521Z,991.98
2018-01-07T11:59:35.506Z,991.97
2018-01-07T12:00:35.506Z,991.99
2018-01-07T12:01:35.495Z,991.99
2018-01-07T12:02:35.488Z,991.97
2018-01-07T12:03:35.540Z,991.99
2018-01-07T12:04:35.485Z,991.95
2018-01-07T12:05:35.479Z,991.95
2018-01-07T12:06:35.478Z,991.94
2018-01-07T12:07:35.466Z,991.96
2018-01-07T12:08:35.455Z,991.92
2018-01-07T12:09:35.453Z,991.89
2018-01-07T12:10:35.467Z,991.86
2018-01-07T12:11:35.432Z,991.83
2018-01-07T12:12:35.441Z,991.85
2018-01-07T12:13:35.443Z,991.81
2018-01-07T12:14:35.417Z,991.81
2018-01-07T12:15:35.426Z,991.81
2018-01-07T12:16:35.412Z,991.82
2018-01-07T12:17:35.410Z,991.86
2018-01-07T12:18:35.421Z,991.84
2018-01-07T12:19:35.393Z,991.86
2018-01-07T12:20:35.466Z,991.88
2018-01-07T12:21:35.382Z,991.88
2018-01-07T12:22:35.381Z,991.8
2018-01-07T12:23:35.370Z,991.8
2018-01-07T12:24:35.414Z,991.83
2018-01-07T12:25:35.405Z,991.85
2018-01-07T12:26:35.396Z,991.83
2018-01-07T12:27:35.354Z,991.83
2018-01-07T12:28:35.352Z,991.81
2018-01-07T12:29:35.350Z,991.83
2018-01-07T12:30:35.352Z,991.85
2018-01-07T12:31:35.352Z,991.83
2018-01-07T12:32:35.328Z,991.81
2018-01-07T12:33:35.324Z,991.84
2018-01-07T12:34:35.317Z,991.8
2018-01-07T12:35:35.328Z,991.82
2018-01-07T12:36:35.307Z,991.87
2018-01-07T12:37:35.307Z,991.89
2018-01-07T12:38:35.324Z,991.75
2018-01-07T12:39:35.324Z,991.84
2018-01-07T12:40:35.286Z,991.88
2018-01-07T12:41:35.299Z,991.86
2018-01-07T12:42:35.286Z,991.87
2018-01-07T12:43:35.273Z,991.85
2018-01-07T12:44:35.272Z,991.88
2018-01-07T12:45:35.262Z,991.9
2018-01-07T12:46:35.258Z,991.87
2018-01-07T12:47:35.253Z,991.86
2018-01-07T12:48:35.247Z,991.87
2018-01-07T12:49:35.263Z,991.89
2018-01-07T12:50:35.237Z,991.85
2018-01-07T12:51:35.231Z,991.86
2018-01-07T12:52:35.226Z,991.82
2018-01-07T12:53:35.548Z,991.83
2018-01-07T12:54:35.225Z,991.8
2018-01-07T12:55:35.226Z,991.82
2018-01-07T12:56:35.239Z,991.8
2018-01-07T12:57:35.210Z,991.75
2018-01-07T12:58:35.219Z,991.74
2018-01-07T12:59:35.211Z,991.77
2018-01-07T13:00:35.198Z,991.78